createdAt,value
2022-12-29T00:01:04.663Z,4.70
2022-12-29T00:03:32.851Z,3.17
2022-12-29T00:06:03.024Z,2.83
2022-12-29T00:08:41.605Z,3.47
2022-12-29T00:11:10.498Z,4.65
2022-12-29T00:13:55.449Z,3.58
2022-12-29T00:16:24.812Z,4.18
2022-12-29T00:18:52.750Z,3.92
2022-12-29T00:21:41.202Z,3.33
2022-12-29T00:24:31.115Z,6.47
2022-12-29T00:27:27.182Z,2.72
2022-12-29T00:30:12.343Z,3.10
2022-12-29T00:33:10.524Z,4.38
2022-12-29T00:35:41.356Z,2.92
2022-12-29T00:38:30.236Z,3.10
2022-12-29T00:41:15.315Z,4.18
2022-12-29T00:44:00.473Z,3.58
2022-12-29T00:46:28.727Z,3.70
2022-12-29T00:49:16.160Z,3.28
2022-12-29T00:51:45.718Z,2.63
2022-12-29T00:54:13.636Z,2.60
2022-12-29T00:56:41.875Z,3.10
2022-12-29T00:59:11.225Z,2.97
2022-12-29T01:01:40.208Z,3.10
2022-12-29T01:04:09.898Z,3.10
2022-12-29T01:06:39.042Z,2.92
2022-12-29T01:09:25.237Z,2.90
2022-12-29T01:11:55.122Z,2.42
2022-12-29T01:14:23.744Z,2.65
2022-12-29T01:16:51.657Z,2.50
2022-12-29T01:19:21.820Z,3.63
2022-12-29T01:21:50.612Z,3.13
2022-12-29T01:24:19.568Z,2.22
2022-12-29T01:26:49.427Z,2.65
2022-12-29T01:29:18.311Z,2.70
2022-12-29T01:31:47.089Z,3.40
2022-12-29T01:34:15.099Z,2.65
2022-12-29T01:36:45.129Z,2.30
2022-12-29T01:39:14.369Z,2.50
2022-12-29T01:41:42.199Z,3.58
2022-12-29T01:44:47.298Z,2.13
2022-12-29T01:47:18.210Z,2.25
2022-12-29T01:49:47.736Z,2.92
2022-12-29T01:52:16.851Z,2.33
2022-12-29T01:54:48.385Z,2.42
2022-12-29T01:57:20.396Z,1.73
2022-12-29T02:02:20.061Z,2.15
2022-12-29T02:04:48.975Z,2.30
2022-12-29T02:07:23.234Z,3.65
2022-12-29T02:09:56.341Z,2.22
2022-12-29T02:12:49.767Z,2.95
2022-12-29T02:15:25.743Z,2.25
2022-12-29T02:18:05.381Z,1.80
2022-12-29T02:21:04.309Z,1.50
2022-12-29T02:24:09.617Z,3.17
2022-12-29T02:26:51.448Z,1.95
2022-12-29T02:29:46.815Z,1.77
2022-12-29T02:32:22.666Z,1.95
2022-12-29T02:35:02.364Z,1.52
2022-12-29T02:37:40.744Z,2.45
2022-12-29T02:40:17.833Z,2.25
2022-12-29T02:42:52.228Z,1.38
2022-12-29T02:45:24.514Z,2.20
2022-12-29T02:47:59.221Z,1.58
2022-12-29T02:50:34.940Z,1.38
2022-12-29T02:53:07.256Z,2.33
2022-12-29T02:55:34.919Z,1.67
2022-12-29T02:58:18.190Z,1.73
2022-12-29T03:00:57.376Z,3.22
2022-12-29T03:03:44.838Z,1.33
2022-12-29T03:06:31.212Z,1.70
2022-12-29T03:09:18.433Z,1.52
2022-12-29T03:12:09.572Z,2.40
2022-12-29T03:15:06.252Z,1.30
2022-12-29T03:17:46.334Z,3.08
2022-12-29T03:20:23.214Z,2.22
2022-12-29T03:22:58.708Z,1.73
2022-12-29T03:25:32.167Z,2.72
2022-12-29T03:28:07.328Z,1.10
2022-12-29T03:30:43.282Z,1.90
2022-12-29T03:33:19.313Z,1.88
2022-12-29T03:35:52.241Z,4.80
2022-12-29T03:38:25.784Z,2.70
2022-12-29T03:40:59.226Z,1.55
2022-12-29T03:43:52.213Z,1.58
2022-12-29T03:46:20.105Z,3.08
2022-12-29T03:48:47.989Z,1.65
2022-12-29T03:51:18.240Z,3.53
2022-12-29T03:53:46.621Z,2.08
2022-12-29T03:56:14.429Z,2.92
2022-12-29T03:58:43.698Z,3.47
2022-12-29T04:01:16.044Z,4.00
2022-12-29T04:03:46.558Z,4.65
2022-12-29T04:06:14.476Z,2.33
2022-12-29T04:08:54.385Z,2.72
2022-12-29T04:11:26.060Z,2.55
2022-12-29T04:13:58.220Z,2.50
2022-12-29T04:18:56.304Z,5.03
2022-12-29T04:21:49.687Z,2.70
2022-12-29T04:24:20.297Z,2.45
2022-12-29T04:26:52.086Z,3.25
2022-12-29T04:29:30.977Z,2.47
2022-12-29T04:32:21.032Z,3.10
2022-12-29T04:34:55.322Z,6.28
2022-12-29T04:37:23.632Z,2.45
2022-12-29T04:39:54.325Z,1.95
2022-12-29T04:42:23.235Z,3.83
2022-12-29T04:44:54.235Z,3.13
2022-12-29T04:47:38.859Z,3.65
2022-12-29T04:50:26.246Z,3.15
2022-12-29T04:53:14.657Z,2.33
2022-12-29T04:55:45.665Z,2.97
2022-12-29T04:58:18.976Z,1.95
2022-12-29T05:00:54.398Z,3.35
2022-12-29T05:03:25.513Z,2.47
2022-12-29T05:05:56.240Z,1.95
2022-12-29T05:08:28.249Z,3.08
2022-12-29T05:10:59.736Z,2.13
2022-12-29T05:13:29.237Z,3.80
2022-12-29T05:15:57.027Z,1.85
2022-12-29T05:18:25.521Z,3.20
2022-12-29T05:20:53.260Z,2.38
2022-12-29T05:23:23.332Z,2.15
2022-12-29T05:26:01.563Z,3.53
2022-12-29T05:28:35.237Z,3.83
2022-12-29T05:31:14.775Z,2.28
2022-12-29T05:33:44.253Z,1.85
2022-12-29T05:36:14.182Z,2.03
2022-12-29T05:38:47.657Z,3.08
2022-12-29T05:41:17.327Z,2.47
2022-12-29T05:44:01.319Z,1.95
2022-12-29T05:47:04.370Z,1.50
2022-12-29T05:49:40.335Z,1.90
2022-12-29T05:52:31.194Z,2.35
2022-12-29T05:54:58.783Z,1.30
2022-12-29T05:57:30.040Z,3.92
2022-12-29T06:00:10.253Z,1.42
2022-12-29T06:02:45.450Z,2.22
2022-12-29T06:05:14.407Z,2.45
2022-12-29T06:07:41.995Z,1.75
2022-12-29T06:10:11.237Z,3.72
2022-12-29T06:12:55.099Z,1.27
2022-12-29T06:15:24.225Z,1.95
2022-12-29T06:17:53.473Z,1.77
2022-12-29T06:20:22.230Z,2.00
2022-12-29T06:22:50.359Z,1.50
2022-12-29T06:25:19.249Z,2.13
2022-12-29T06:27:47.039Z,3.85
2022-12-29T06:30:17.855Z,2.10
2022-12-29T06:32:50.236Z,3.35
2022-12-29T06:38:17.417Z,3.25
2022-12-29T06:40:47.233Z,2.83
2022-12-29T06:43:18.268Z,3.10
2022-12-29T06:46:25.233Z,1.52
2022-12-29T06:48:53.224Z,2.53
2022-12-29T06:51:21.667Z,2.67
2022-12-29T06:53:53.239Z,2.60
2022-12-29T06:56:21.753Z,3.00
2022-12-29T06:58:51.251Z,2.33
2022-12-29T07:01:20.273Z,3.60
2022-12-29T07:03:50.245Z,2.95
2022-12-29T07:06:20.334Z,5.70
2022-12-29T07:08:47.969Z,9.88
2022-12-29T07:11:15.811Z,4.50
2022-12-29T07:13:44.890Z,5.30
2022-12-29T07:16:12.926Z,4.82
2022-12-29T07:18:42.027Z,5.00
2022-12-29T07:21:34.004Z,4.10
2022-12-29T07:24:02.332Z,5.70
2022-12-29T07:26:35.954Z,4.03
2022-12-29T07:29:04.038Z,5.88
2022-12-29T07:31:57.713Z,3.70
2022-12-29T07:34:26.740Z,5.72
2022-12-29T07:36:54.678Z,3.85
2022-12-29T07:39:24.250Z,3.28
2022-12-29T07:44:53.267Z,5.70
2022-12-29T07:47:27.812Z,5.97
2022-12-29T07:49:57.337Z,4.78
2022-12-29T07:52:25.656Z,4.38
2022-12-29T07:54:55.286Z,7.28
2022-12-29T07:57:31.296Z,6.50
2022-12-29T07:59:59.985Z,4.63
2022-12-29T08:02:28.222Z,5.50
2022-12-29T08:05:01.278Z,3.40
2022-12-29T08:07:29.778Z,3.40
2022-12-29T08:09:57.406Z,6.30
2022-12-29T08:12:25.110Z,3.15
2022-12-29T08:14:52.699Z,2.60
2022-12-29T08:17:20.847Z,3.90
2022-12-29T08:19:48.444Z,4.88
2022-12-29T08:22:19.250Z,4.93
2022-12-29T08:24:49.045Z,5.07
2022-12-29T08:27:20.710Z,3.78
2022-12-29T08:32:16.580Z,5.32
2022-12-29T08:34:44.168Z,4.03
2022-12-29T08:37:12.910Z,6.07
2022-12-29T08:39:41.919Z,4.78
2022-12-29T08:42:13.252Z,4.82
2022-12-29T08:44:43.723Z,4.82
2022-12-29T08:47:12.437Z,3.78
2022-12-29T08:49:40.185Z,6.32
2022-12-29T08:52:08.237Z,4.88
2022-12-29T08:54:36.272Z,8.82
2022-12-29T08:57:05.337Z,4.65
2022-12-29T08:59:39.249Z,3.72
2022-12-29T09:02:07.523Z,4.18
2022-12-29T09:04:35.686Z,5.30
2022-12-29T09:07:04.661Z,4.43
2022-12-29T09:09:36.095Z,5.13
2022-12-29T09:12:05.150Z,4.20
2022-12-29T09:14:32.827Z,4.68
2022-12-29T09:17:17.929Z,4.82
2022-12-29T09:19:45.762Z,3.63
2022-12-29T09:22:39.089Z,5.88
2022-12-29T09:25:07.417Z,9.02
2022-12-29T09:27:36.442Z,6.30
2022-12-29T09:30:04.996Z,8.23
2022-12-29T09:32:34.293Z,6.30
2022-12-29T09:35:02.996Z,8.05
2022-12-29T09:37:30.709Z,6.40
2022-12-29T09:39:59.344Z,6.60
2022-12-29T09:42:33.416Z,4.70
2022-12-29T09:45:16.268Z,8.48
2022-12-29T09:48:13.704Z,6.68
2022-12-29T09:50:45.076Z,5.65
2022-12-29T09:53:20.420Z,10.73
2022-12-29T09:55:52.339Z,4.88
2022-12-29T09:58:27.178Z,4.63
2022-12-29T10:01:03.431Z,6.22
2022-12-29T10:03:42.694Z,5.82
2022-12-29T10:06:15.844Z,3.92
2022-12-29T10:08:49.666Z,4.15
2022-12-29T10:11:32.973Z,6.00
2022-12-29T10:14:20.672Z,6.53
2022-12-29T10:16:59.319Z,5.93
2022-12-29T10:19:41.512Z,9.93
2022-12-29T10:24:48.456Z,5.53
2022-12-29T10:27:19.252Z,8.68
2022-12-29T10:29:52.989Z,4.55
2022-12-29T10:32:29.410Z,6.20
2022-12-29T10:35:05.394Z,6.53
2022-12-29T10:37:40.831Z,6.38
2022-12-29T10:40:21.311Z,8.32
2022-12-29T10:42:54.367Z,6.03
2022-12-29T10:45:26.122Z,6.20
2022-12-29T10:50:28.268Z,4.20
2022-12-29T10:52:57.407Z,8.73
2022-12-29T10:55:33.854Z,6.13
2022-12-29T10:58:10.743Z,7.05
2022-12-29T11:00:38.612Z,8.07
2022-12-29T11:03:28.297Z,5.85
2022-12-29T11:06:00.091Z,5.80
2022-12-29T11:08:32.143Z,7.20
2022-12-29T11:11:02.150Z,5.63
2022-12-29T11:13:36.717Z,7.53
2022-12-29T11:16:06.844Z,7.53
2022-12-29T11:18:38.771Z,6.40
2022-12-29T11:23:41.619Z,7.00
2022-12-29T11:26:16.136Z,6.80
2022-12-29T11:28:46.280Z,6.75
2022-12-29T11:31:18.640Z,5.70
2022-12-29T11:33:48.266Z,4.47
2022-12-29T11:36:19.160Z,5.72
2022-12-29T11:38:51.294Z,4.45
2022-12-29T11:41:25.808Z,6.28
2022-12-29T11:43:55.410Z,6.88
2022-12-29T11:46:51.658Z,5.97
2022-12-29T11:49:26.617Z,3.88
2022-12-29T11:52:01.238Z,6.25
2022-12-29T11:54:31.806Z,6.80
2022-12-29T11:57:00.769Z,6.32
2022-12-29T11:59:44.600Z,5.97
2022-12-29T12:02:40.597Z,7.57
2022-12-29T12:05:19.125Z,5.97
2022-12-29T12:07:48.756Z,4.95
2022-12-29T12:10:23.513Z,7.82
2022-12-29T12:13:10.244Z,5.78
2022-12-29T12:15:49.134Z,6.85
2022-12-29T12:18:36.264Z,5.05
2022-12-29T12:21:14.326Z,7.72
2022-12-29T12:24:01.248Z,5.75
2022-12-29T12:26:40.383Z,7.03
2022-12-29T12:29:15.397Z,6.28
2022-12-29T12:31:49.848Z,4.75
2022-12-29T12:34:24.433Z,5.90
2022-12-29T12:37:16.307Z,7.13
2022-12-29T12:39:58.694Z,7.38
2022-12-29T12:42:41.153Z,5.10
2022-12-29T12:45:32.876Z,8.32
2022-12-29T12:48:14.641Z,6.50
2022-12-29T12:50:57.259Z,5.72
2022-12-29T12:53:43.177Z,5.82
2022-12-29T12:56:32.362Z,5.32
2022-12-29T12:59:10.126Z,6.82
2022-12-29T13:01:44.199Z,8.15
2022-12-29T13:04:35.100Z,6.75
2022-12-29T13:07:11.439Z,6.20
2022-12-29T13:09:52.859Z,8.25
2022-12-29T13:12:33.569Z,8.32
2022-12-29T13:15:13.841Z,5.13
2022-12-29T13:17:47.527Z,8.80
2022-12-29T13:20:26.374Z,6.15
2022-12-29T13:23:01.270Z,4.97
2022-12-29T13:25:39.749Z,6.53
2022-12-29T13:28:19.284Z,8.20
2022-12-29T13:30:59.362Z,5.75
2022-12-29T13:33:39.861Z,5.55
2022-12-29T13:36:16.336Z,6.43
2022-12-29T13:38:50.285Z,5.53
2022-12-29T13:41:28.377Z,7.45
2022-12-29T13:43:59.268Z,9.98
2022-12-29T13:46:29.409Z,9.15
2022-12-29T13:49:03.211Z,6.25
2022-12-29T13:51:32.901Z,6.32
2022-12-29T13:54:12.153Z,6.75
2022-12-29T13:56:48.199Z,6.85
2022-12-29T13:59:23.184Z,6.28
2022-12-29T14:02:00.487Z,7.20
2022-12-29T14:04:33.613Z,6.68
2022-12-29T14:07:06.972Z,5.72
2022-12-29T14:09:44.992Z,4.68
2022-12-29T14:12:32.639Z,7.53
2022-12-29T14:15:18.275Z,7.80
2022-12-29T14:18:03.858Z,8.82
2022-12-29T14:20:31.808Z,8.23
2022-12-29T14:23:02.266Z,8.68
2022-12-29T14:26:02.740Z,6.90
2022-12-29T14:28:34.350Z,7.53
2022-12-29T14:31:03.589Z,7.03
2022-12-29T14:33:32.669Z,6.97
2022-12-29T14:36:21.586Z,7.00
2022-12-29T14:39:30.284Z,8.90
2022-12-29T14:42:02.533Z,8.80
2022-12-29T14:44:32.389Z,7.47
2022-12-29T14:47:06.581Z,5.78
2022-12-29T14:49:41.156Z,6.65
2022-12-29T14:52:17.381Z,7.57
2022-12-29T14:54:51.266Z,5.95
2022-12-29T14:57:30.202Z,7.63
2022-12-29T15:00:06.700Z,10.20
2022-12-29T15:02:40.604Z,7.00
2022-12-29T15:05:26.328Z,6.25
2022-12-29T15:07:58.276Z,7.35
2022-12-29T15:10:29.012Z,5.78
2022-12-29T15:12:57.593Z,5.93
2022-12-29T15:15:30.721Z,9.27
2022-12-29T15:18:00.295Z,5.35
2022-12-29T15:20:30.020Z,8.52
2022-12-29T15:23:00.342Z,6.07
2022-12-29T15:25:30.276Z,6.57
2022-12-29T15:28:03.613Z,5.63
2022-12-29T15:30:33.300Z,6.20
2022-12-29T15:33:00.979Z,7.40
2022-12-29T15:35:33.503Z,5.43
2022-12-29T15:38:04.169Z,5.15
2022-12-29T15:40:33.868Z,10.52
2022-12-29T15:43:20.201Z,8.80
2022-12-29T15:45:52.614Z,7.00
2022-12-29T15:48:24.698Z,6.97
2022-12-29T15:50:53.860Z,4.65
2022-12-29T15:53:29.318Z,6.75
2022-12-29T15:56:03.646Z,8.48
2022-12-29T15:58:32.972Z,6.50
2022-12-29T16:01:03.511Z,6.20
2022-12-29T16:03:34.843Z,5.40
2022-12-29T16:06:10.481Z,6.57
2022-12-29T16:09:07.532Z,5.63
2022-12-29T16:11:39.297Z,7.00
2022-12-29T16:14:12.384Z,5.97
2022-12-29T16:16:45.033Z,8.63
2022-12-29T16:21:46.113Z,5.53
2022-12-29T16:24:17.157Z,4.35
2022-12-29T16:26:49.620Z,6.30
2022-12-29T16:29:21.448Z,6.43
2022-12-29T16:32:01.285Z,5.78
2022-12-29T16:34:32.586Z,6.85
2022-12-29T16:37:02.384Z,6.50
2022-12-29T16:39:36.697Z,5.18
2022-12-29T16:42:38.353Z,5.35
2022-12-29T16:45:47.363Z,7.22
2022-12-29T16:48:21.975Z,5.22
2022-12-29T16:50:51.177Z,4.85
2022-12-29T16:53:23.014Z,6.78
2022-12-29T16:58:21.693Z,5.03
2022-12-29T17:00:50.064Z,5.93
2022-12-29T17:03:18.155Z,7.97
2022-12-29T17:05:49.310Z,5.32
2022-12-29T17:08:23.843Z,6.72
2022-12-29T17:11:10.493Z,6.88
2022-12-29T17:13:38.946Z,7.28
2022-12-29T17:16:08.880Z,7.00
2022-12-29T17:18:37.297Z,7.45
2022-12-29T17:21:06.607Z,11.02
2022-12-29T17:23:35.182Z,6.70
2022-12-29T17:26:03.488Z,6.90
2022-12-29T17:28:33.449Z,9.43
2022-12-29T17:31:03.952Z,10.73
2022-12-29T17:33:38.284Z,6.95
2022-12-29T17:36:07.848Z,10.40
2022-12-29T17:38:38.279Z,5.93
2022-12-29T17:41:15.104Z,5.97
2022-12-29T17:43:42.823Z,6.45
2022-12-29T17:46:10.454Z,5.88
2022-12-29T17:48:38.237Z,5.85
2022-12-29T17:51:07.995Z,6.70
2022-12-29T17:53:35.632Z,4.47
2022-12-29T17:56:03.304Z,7.35
2022-12-29T17:58:32.393Z,7.03
2022-12-29T18:01:03.492Z,8.23
2022-12-29T18:03:34.777Z,7.65
2022-12-29T18:06:04.536Z,5.43
2022-12-29T18:08:34.558Z,6.97
2022-12-29T18:11:05.270Z,6.90
2022-12-29T18:13:44.051Z,7.75
2022-12-29T18:16:14.274Z,5.82
2022-12-29T18:18:42.144Z,5.70
2022-12-29T18:21:16.686Z,5.57
2022-12-29T18:23:47.288Z,4.50
2022-12-29T18:26:22.362Z,4.60
2022-12-29T18:28:54.393Z,5.93
2022-12-29T18:31:24.796Z,6.03
2022-12-29T18:33:54.290Z,6.93
2022-12-29T18:36:22.717Z,6.18
2022-12-29T18:38:53.883Z,3.22
2022-12-29T18:41:24.287Z,3.78
2022-12-29T18:43:52.580Z,4.95
2022-12-29T18:46:22.981Z,5.13
2022-12-29T18:48:51.763Z,4.10
2022-12-29T18:51:22.245Z,3.85
2022-12-29T18:53:53.868Z,4.85
2022-12-29T18:56:23.323Z,4.75
2022-12-29T18:58:51.450Z,4.80
2022-12-29T19:01:21.654Z,4.63
2022-12-29T19:03:49.711Z,4.93
2022-12-29T19:06:17.623Z,6.20
2022-12-29T19:08:45.614Z,7.28
2022-12-29T19:11:14.601Z,5.13
2022-12-29T19:13:42.264Z,5.68
2022-12-29T19:16:18.404Z,6.32
2022-12-29T19:18:51.164Z,6.25
2022-12-29T19:21:26.117Z,7.18
2022-12-29T19:23:53.730Z,4.88
2022-12-29T19:26:30.683Z,4.53
2022-12-29T19:29:00.285Z,5.60
2022-12-29T19:31:30.572Z,5.00
2022-12-29T19:33:58.229Z,4.43
2022-12-29T19:36:25.908Z,5.72
2022-12-29T19:38:54.793Z,4.95
2022-12-29T19:41:22.806Z,3.55
2022-12-29T19:43:52.010Z,7.63
2022-12-29T19:46:20.924Z,5.72
2022-12-29T19:48:49.041Z,5.22
2022-12-29T19:51:18.476Z,6.45
2022-12-29T19:53:46.831Z,6.57
2022-12-29T19:56:15.487Z,5.50
2022-12-29T19:58:47.495Z,5.65
2022-12-29T20:01:19.548Z,7.50
2022-12-29T20:03:48.366Z,6.70
2022-12-29T20:06:16.862Z,7.93
2022-12-29T20:08:45.054Z,6.90
2022-12-29T20:11:15.186Z,7.47
2022-12-29T20:13:43.668Z,6.18
2022-12-29T20:16:15.047Z,7.03
2022-12-29T20:18:44.806Z,9.32
2022-12-29T20:21:14.754Z,11.00
2022-12-29T20:23:44.733Z,6.80
2022-12-29T20:26:15.936Z,6.90
2022-12-29T20:28:43.807Z,8.17
2022-12-29T20:31:19.332Z,12.98
2022-12-29T20:33:49.427Z,7.88
2022-12-29T20:36:21.354Z,8.57
2022-12-29T20:41:22.654Z,8.82
2022-12-29T20:43:50.726Z,9.55
2022-12-29T20:46:21.847Z,13.13
2022-12-29T20:48:52.554Z,10.68
2022-12-29T20:51:21.379Z,9.48
2022-12-29T20:53:50.369Z,7.20
2022-12-29T20:56:20.394Z,13.48
2022-12-29T21:01:37.759Z,12.05
2022-12-29T21:04:07.715Z,9.63
2022-12-29T21:06:36.179Z,9.48
2022-12-29T21:09:04.685Z,13.32
2022-12-29T21:11:33.850Z,9.65
2022-12-29T21:14:01.686Z,12.05
2022-12-29T21:16:33.789Z,15.60
2022-12-29T21:21:32.273Z,16.08
2022-12-29T21:24:05.424Z,9.85
2022-12-29T21:26:34.816Z,9.60
2022-12-29T21:29:04.276Z,11.18
2022-12-29T21:31:35.945Z,12.52
2022-12-29T21:34:05.443Z,10.93
2022-12-29T21:36:34.787Z,9.30
2022-12-29T21:39:04.501Z,13.77
2022-12-29T21:41:33.290Z,12.10
2022-12-29T21:44:18.646Z,11.38
2022-12-29T21:46:48.650Z,11.63
2022-12-29T21:49:18.388Z,12.35
2022-12-29T21:51:53.657Z,13.93
2022-12-29T21:54:41.524Z,11.32
2022-12-29T21:57:10.701Z,11.45
2022-12-29T21:59:58.248Z,15.18
2022-12-29T22:02:46.132Z,9.23
2022-12-29T22:05:34.020Z,9.85
2022-12-29T22:08:21.809Z,14.13
2022-12-29T22:11:07.206Z,14.00
2022-12-29T22:13:36.659Z,12.30
2022-12-29T22:16:05.120Z,11.82
2022-12-29T22:18:32.859Z,13.27
2022-12-29T22:21:04.847Z,14.30
2022-12-29T22:26:04.749Z,10.52
2022-12-29T22:28:32.799Z,11.80
2022-12-29T22:31:01.231Z,8.70
2022-12-29T22:33:29.055Z,8.35
2022-12-29T22:35:56.836Z,11.35
2022-12-29T22:38:25.856Z,7.05
2022-12-29T22:40:59.336Z,9.85
2022-12-29T22:43:29.780Z,9.70
2022-12-29T22:46:04.962Z,8.57
2022-12-29T22:48:34.294Z,9.65
2022-12-29T22:51:02.104Z,7.82
2022-12-29T22:53:30.137Z,13.20
2022-12-29T22:56:05.542Z,7.78
2022-12-29T22:58:33.201Z,8.25
2022-12-29T23:01:01.271Z,8.32
2022-12-29T23:03:29.252Z,11.07
2022-12-29T23:05:59.113Z,10.68
2022-12-29T23:08:28.365Z,10.25
2022-12-29T23:10:55.963Z,13.27
2022-12-29T23:13:24.954Z,10.32
2022-12-29T23:15:52.648Z,12.73
2022-12-29T23:18:21.251Z,12.40
2022-12-29T23:20:49.706Z,11.10
2022-12-29T23:23:46.267Z,11.35
2022-12-29T23:26:16.301Z,11.75
2022-12-29T23:28:45.383Z,7.90
2022-12-29T23:31:13.397Z,12.30
2022-12-29T23:33:41.976Z,8.60
2022-12-29T23:36:10.440Z,9.45
2022-12-29T23:38:38.281Z,10.55
2022-12-29T23:41:06.086Z,10.32
2022-12-29T23:43:33.936Z,9.98
2022-12-29T23:46:08.754Z,7.78
2022-12-29T23:48:41.309Z,10.20
2022-12-29T23:51:10.213Z,11.27
2022-12-29T23:53:41.180Z,18.67
2022-12-29T23:56:15.629Z,11.25
2022-12-29T23:58:43.446Z,10.40
